sensor_id;sensor_type;location;lat;lon;timestamp;temperature;humidity
20998;DHT22;10657;51.276;6.390;2023-04-06T00:00:49;6.70;99.90
20998;DHT22;10657;51.276;6.390;2023-04-06T00:03:17;6.70;99.90
20998;DHT22;10657;51.276;6.390;2023-04-06T00:05:44;6.50;99.90
20998;DHT22;10657;51.276;6.390;2023-04-06T00:08:11;6.40;99.90
20998;DHT22;10657;51.276;6.390;2023-04-06T00:10:38;6.40;99.90
20998;DHT22;10657;51.276;6.390;2023-04-06T00:13:05;6.40;99.90
20998;DHT22;10657;51.276;6.390;2023-04-06T00:15:33;6.50;99.90
20998;DHT22;10657;51.276;6.390;2023-04-06T00:18:00;6.60;99.90
20998;DHT22;10657;51.276;6.390;2023-04-06T00:20:27;6.50;99.90
20998;DHT22;10657;51.276;6.390;2023-04-06T00:22:53;6.40;99.90
20998;DHT22;10657;51.276;6.390;2023-04-06T00:25:20;6.50;99.90
20998;DHT22;10657;51.276;6.390;2023-04-06T00:27:47;6.50;99.90
20998;DHT22;10657;51.276;6.390;2023-04-06T00:30:14;6.50;99.90
20998;DHT22;10657;51.276;6.390;2023-04-06T00:32:41;6.40;99.90
20998;DHT22;10657;51.276;6.390;2023-04-06T00:35:07;6.50;99.90
20998;DHT22;10657;51.276;6.390;2023-04-06T00:37:34;6.40;99.90
20998;DHT22;10657;51.276;6.390;2023-04-06T00:40:01;6.40;99.90
20998;DHT22;10657;51.276;6.390;2023-04-06T00:42:31;6.40;99.90
20998;DHT22;10657;51.276;6.390;2023-04-06T00:44:59;6.20;99.90
20998;DHT22;10657;51.276;6.390;2023-04-06T00:47:26;6.30;99.90
20998;DHT22;10657;51.276;6.390;2023-04-06T00:49:54;6.30;99.90
20998;DHT22;10657;51.276;6.390;2023-04-06T00:52:21;6.20;99.90
20998;DHT22;10657;51.276;6.390;2023-04-06T00:54:48;6.20;99.90
20998;DHT22;10657;51.276;6.390;2023-04-06T00:57:16;6.30;99.90
20998;DHT22;10657;51.276;6.390;2023-04-06T00:59:43;6.20;99.90
20998;DHT22;10657;51.276;6.390;2023-04-06T01:02:10;6.00;99.90
20998;DHT22;10657;51.276;6.390;2023-04-06T01:04:37;5.80;99.90
20998;DHT22;10657;51.276;6.390;2023-04-06T01:07:03;5.80;99.90
20998;DHT22;10657;51.276;6.390;2023-04-06T01:09:30;6.00;99.90
20998;DHT22;10657;51.276;6.390;2023-04-06T01:11:58;5.90;99.90
20998;DHT22;10657;51.276;6.390;2023-04-06T01:14:25;6.00;99.90
20998;DHT22;10657;51.276;6.390;2023-04-06T01:16:52;5.80;99.90
20998;DHT22;10657;51.276;6.390;2023-04-06T01:19:19;5.70;99.90
20998;DHT22;10657;51.276;6.390;2023-04-06T01:21:47;5.50;99.90
20998;DHT22;10657;51.276;6.390;2023-04-06T01:24:16;5.50;99.90
20998;DHT22;10657;51.276;6.390;2023-04-06T01:26:43;5.50;99.90
20998;DHT22;10657;51.276;6.390;2023-04-06T01:29:09;5.60;99.90
20998;DHT22;10657;51.276;6.390;2023-04-06T01:31:36;5.70;99.90
20998;DHT22;10657;51.276;6.390;2023-04-06T01:34:03;5.70;99.90
20998;DHT22;10657;51.276;6.390;2023-04-06T01:36:30;5.60;99.90
20998;DHT22;10657;51.276;6.390;2023-04-06T01:38:57;5.80;99.90
20998;DHT22;10657;51.276;6.390;2023-04-06T01:41:24;5.70;99.90
20998;DHT22;10657;51.276;6.390;2023-04-06T01:43:50;5.70;99.90
20998;DHT22;10657;51.276;6.390;2023-04-06T01:46:20;5.50;99.90
20998;DHT22;10657;51.276;6.390;2023-04-06T01:48:47;5.50;99.90
20998;DHT22;10657;51.276;6.390;2023-04-06T01:51:14;5.30;99.90
20998;DHT22;10657;51.276;6.390;2023-04-06T01:53:40;5.30;99.90
20998;DHT22;10657;51.276;6.390;2023-04-06T01:56:07;5.20;99.90
20998;DHT22;10657;51.276;6.390;2023-04-06T01:58:34;5.20;99.90
20998;DHT22;10657;51.276;6.390;2023-04-06T02:01:01;5.20;99.90
20998;DHT22;10657;51.276;6.390;2023-04-06T02:03:28;5.20;99.90
20998;DHT22;10657;51.276;6.390;2023-04-06T02:05:55;5.20;99.90
20998;DHT22;10657;51.276;6.390;2023-04-06T02:08:22;5.20;99.90
20998;DHT22;10657;51.276;6.390;2023-04-06T02:10:48;5.00;99.90
20998;DHT22;10657;51.276;6.390;2023-04-06T02:13:15;5.10;99.90
20998;DHT22;10657;51.276;6.390;2023-04-06T02:15:41;5.10;99.90
20998;DHT22;10657;51.276;6.390;2023-04-06T02:18:08;5.00;99.90
20998;DHT22;10657;51.276;6.390;2023-04-06T02:20:36;5.10;99.90
20998;DHT22;10657;51.276;6.390;2023-04-06T02:23:03;5.20;99.90
20998;DHT22;10657;51.276;6.390;2023-04-06T02:25:30;5.20;99.90
20998;DHT22;10657;51.276;6.390;2023-04-06T02:27:56;4.90;99.90
20998;DHT22;10657;51.276;6.390;2023-04-06T02:30:23;5.10;99.90
20998;DHT22;10657;51.276;6.390;2023-04-06T02:32:50;5.10;99.90
20998;DHT22;10657;51.276;6.390;2023-04-06T02:35:17;4.90;99.90
20998;DHT22;10657;51.276;6.390;2023-04-06T02:37:43;4.90;99.90
20998;DHT22;10657;51.276;6.390;2023-04-06T02:40:10;5.20;99.90
20998;DHT22;10657;51.276;6.390;2023-04-06T02:42:37;5.10;99.90
20998;DHT22;10657;51.276;6.390;2023-04-06T02:45:04;5.10;99.90
20998;DHT22;10657;51.276;6.390;2023-04-06T02:47:31;5.20;99.90
20998;DHT22;10657;51.276;6.390;2023-04-06T02:49:58;5.10;99.90
20998;DHT22;10657;51.276;6.390;2023-04-06T02:52:26;4.90;99.90
20998;DHT22;10657;51.276;6.390;2023-04-06T02:54:52;5.00;99.90
20998;DHT22;10657;51.276;6.390;2023-04-06T02:57:19;5.00;99.90
20998;DHT22;10657;51.276;6.390;2023-04-06T02:59:46;5.10;99.90
20998;DHT22;10657;51.276;6.390;2023-04-06T03:02:12;5.20;99.90
20998;DHT22;10657;51.276;6.390;2023-04-06T03:04:39;5.10;99.90
20998;DHT22;10657;51.276;6.390;2023-04-06T03:07:06;5.00;99.90
20998;DHT22;10657;51.276;6.390;2023-04-06T03:09:32;5.10;99.90
20998;DHT22;10657;51.276;6.390;2023-04-06T03:12:00;5.10;99.90
20998;DHT22;10657;51.276;6.390;2023-04-06T03:14:28;5.00;99.90
20998;DHT22;10657;51.276;6.390;2023-04-06T03:16:54;4.80;99.90
20998;DHT22;10657;51.276;6.390;2023-04-06T03:19:21;4.50;99.90
20998;DHT22;10657;51.276;6.390;2023-04-06T03:21:48;4.40;99.90
20998;DHT22;10657;51.276;6.390;2023-04-06T03:24:14;4.30;99.90
20998;DHT22;10657;51.276;6.390;2023-04-06T03:26:41;4.30;99.90
20998;DHT22;10657;51.276;6.390;2023-04-06T03:29:08;4.50;99.90
20998;DHT22;10657;51.276;6.390;2023-04-06T03:31:35;4.50;99.90
20998;DHT22;10657;51.276;6.390;2023-04-06T03:34:02;4.60;99.90
20998;DHT22;10657;51.276;6.390;2023-04-06T03:36:28;4.80;99.90
20998;DHT22;10657;51.276;6.390;2023-04-06T03:38:56;4.90;99.90
20998;DHT22;10657;51.276;6.390;2023-04-06T03:41:23;4.90;99.90
20998;DHT22;10657;51.276;6.390;2023-04-06T03:43:49;4.80;99.90
20998;DHT22;10657;51.276;6.390;2023-04-06T03:46:17;4.80;99.90
20998;DHT22;10657;51.276;6.390;2023-04-06T03:48:43;4.80;99.90
20998;DHT22;10657;51.276;6.390;2023-04-06T03:51:10;5.00;99.90
20998;DHT22;10657;51.276;6.390;2023-04-06T03:53:37;5.20;99.90
20998;DHT22;10657;51.276;6.390;2023-04-06T03:56:04;5.00;99.90
20998;DHT22;10657;51.276;6.390;2023-04-06T03:58:31;4.80;99.90
20998;DHT22;10657;51.276;6.390;2023-04-06T04:00:57;4.70;99.90
20998;DHT22;10657;51.276;6.390;2023-04-06T04:03:24;4.60;99.90
20998;DHT22;10657;51.276;6.390;2023-04-06T04:05:54;4.30;99.90
20998;DHT22;10657;51.276;6.390;2023-04-06T04:08:24;4.40;99.90
20998;DHT22;10657;51.276;6.390;2023-04-06T04:10:51;4.50;99.90
20998;DHT22;10657;51.276;6.390;2023-04-06T04:13:18;4.50;99.90
20998;DHT22;10657;51.276;6.390;2023-04-06T04:15:45;4.10;99.90
20998;DHT22;10657;51.276;6.390;2023-04-06T04:18:13;4.20;99.90
20998;DHT22;10657;51.276;6.390;2023-04-06T04:20:40;4.30;99.90
20998;DHT22;10657;51.276;6.390;2023-04-06T04:23:07;4.40;99.90
20998;DHT22;10657;51.276;6.390;2023-04-06T04:25:34;4.50;99.90
20998;DHT22;10657;51.276;6.390;2023-04-06T04:28:00;4.40;99.90
20998;DHT22;10657;51.276;6.390;2023-04-06T04:30:27;4.40;99.90
20998;DHT22;10657;51.276;6.390;2023-04-06T04:32:54;4.10;99.90
20998;DHT22;10657;51.276;6.390;2023-04-06T04:35:20;4.10;99.90
20998;DHT22;10657;51.276;6.390;2023-04-06T04:37:47;4.10;99.90
20998;DHT22;10657;51.276;6.390;2023-04-06T04:40:14;4.20;99.90
20998;DHT22;10657;51.276;6.390;2023-04-06T04:42:40;4.30;99.90
20998;DHT22;10657;51.276;6.390;2023-04-06T04:45:07;4.50;99.90
20998;DHT22;10657;51.276;6.390;2023-04-06T04:47:34;4.80;99.90
20998;DHT22;10657;51.276;6.390;2023-04-06T04:50:01;4.80;99.90
20998;DHT22;10657;51.276;6.390;2023-04-06T04:52:28;4.70;99.90
20998;DHT22;10657;51.276;6.390;2023-04-06T04:54:55;4.80;99.90
20998;DHT22;10657;51.276;6.390;2023-04-06T04:57:21;4.70;99.90
20998;DHT22;10657;51.276;6.390;2023-04-06T04:59:48;4.70;99.90
20998;DHT22;10657;51.276;6.390;2023-04-06T05:02:16;4.90;99.90
20998;DHT22;10657;51.276;6.390;2023-04-06T05:04:43;5.00;99.90
20998;DHT22;10657;51.276;6.390;2023-04-06T05:07:10;5.00;99.90
20998;DHT22;10657;51.276;6.390;2023-04-06T05:09:36;4.70;99.90
20998;DHT22;10657;51.276;6.390;2023-04-06T05:12:03;4.70;99.90
20998;DHT22;10657;51.276;6.390;2023-04-06T05:14:30;4.50;99.90
20998;DHT22;10657;51.276;6.390;2023-04-06T05:16:57;4.60;99.90
20998;DHT22;10657;51.276;6.390;2023-04-06T05:19:23;4.60;99.90
20998;DHT22;10657;51.276;6.390;2023-04-06T05:21:50;4.70;99.90
20998;DHT22;10657;51.276;6.390;2023-04-06T05:24:17;4.70;99.90
20998;DHT22;10657;51.276;6.390;2023-04-06T05:26:43;4.70;99.90
20998;DHT22;10657;51.276;6.390;2023-04-06T05:29:11;4.70;99.90
20998;DHT22;10657;51.276;6.390;2023-04-06T05:31:38;4.80;99.90
20998;DHT22;10657;51.276;6.390;2023-04-06T05:34:05;5.00;99.90
20998;DHT22;10657;51.276;6.390;2023-04-06T05:36:32;5.00;99.90
20998;DHT22;10657;51.276;6.390;2023-04-06T05:38:58;5.00;99.90
20998;DHT22;10657;51.276;6.390;2023-04-06T05:41:25;4.70;99.90
20998;DHT22;10657;51.276;6.390;2023-04-06T05:43:52;4.80;99.90
20998;DHT22;10657;51.276;6.390;2023-04-06T05:46:19;4.90;99.90
20998;DHT22;10657;51.276;6.390;2023-04-06T05:48:46;4.90;99.90
20998;DHT22;10657;51.276;6.390;2023-04-06T05:51:13;5.10;99.90
20998;DHT22;10657;51.276;6.390;2023-04-06T05:53:39;4.90;99.90
20998;DHT22;10657;51.276;6.390;2023-04-06T05:56:07;5.00;99.90
20998;DHT22;10657;51.276;6.390;2023-04-06T05:58:33;5.20;99.90
20998;DHT22;10657;51.276;6.390;2023-04-06T06:01:00;5.10;99.90
20998;DHT22;10657;51.276;6.390;2023-04-06T06:03:27;5.30;99.90
20998;DHT22;10657;51.276;6.390;2023-04-06T06:05:53;5.50;99.90
20998;DHT22;10657;51.276;6.390;2023-04-06T06:08:25;5.60;99.90
20998;DHT22;10657;51.276;6.390;2023-04-06T06:10:52;5.70;99.90
20998;DHT22;10657;51.276;6.390;2023-04-06T06:13:18;5.70;99.90
20998;DHT22;10657;51.276;6.390;2023-04-06T06:15:46;5.80;99.90
20998;DHT22;10657;51.276;6.390;2023-04-06T06:18:12;5.90;99.90
20998;DHT22;10657;51.276;6.390;2023-04-06T06:20:39;6.10;99.90
20998;DHT22;10657;51.276;6.390;2023-04-06T06:23:06;6.00;99.90
20998;DHT22;10657;51.276;6.390;2023-04-06T06:25:32;5.90;99.90
20998;DHT22;10657;51.276;6.390;2023-04-06T06:27:59;5.90;99.90
20998;DHT22;10657;51.276;6.390;2023-04-06T06:30:26;5.90;99.90
20998;DHT22;10657;51.276;6.390;2023-04-06T06:32:53;6.10;99.90
20998;DHT22;10657;51.276;6.390;2023-04-06T06:35:20;6.20;99.90
20998;DHT22;10657;51.276;6.390;2023-04-06T06:37:46;6.40;99.90
20998;DHT22;10657;51.276;6.390;2023-04-06T06:40:13;6.10;99.90
20998;DHT22;10657;51.276;6.390;2023-04-06T06:42:42;6.10;99.90
20998;DHT22;10657;51.276;6.390;2023-04-06T06:45:10;6.10;99.90
20998;DHT22;10657;51.276;6.390;2023-04-06T06:47:37;6.10;99.90
20998;DHT22;10657;51.276;6.390;2023-04-06T06:50:04;6.30;99.90
20998;DHT22;10657;51.276;6.390;2023-04-06T06:52:31;6.30;99.90
20998;DHT22;10657;51.276;6.390;2023-04-06T06:54:58;6.50;99.90
20998;DHT22;10657;51.276;6.390;2023-04-06T06:57:25;6.30;99.90
20998;DHT22;10657;51.276;6.390;2023-04-06T06:59:52;6.10;99.90
20998;DHT22;10657;51.276;6.390;2023-04-06T07:02:19;6.30;99.90
20998;DHT22;10657;51.276;6.390;2023-04-06T07:04:48;6.50;99.90
20998;DHT22;10657;51.276;6.390;2023-04-06T07:07:16;6.40;99.90
20998;DHT22;10657;51.276;6.390;2023-04-06T07:09:42;6.70;99.90
20998;DHT22;10657;51.276;6.390;2023-04-06T07:12:09;6.80;99.90
20998;DHT22;10657;51.276;6.390;2023-04-06T07:14:36;6.40;99.90
20998;DHT22;10657;51.276;6.390;2023-04-06T07:17:03;6.50;99.90
20998;DHT22;10657;51.276;6.390;2023-04-06T07:19:30;6.90;99.90
20998;DHT22;10657;51.276;6.390;2023-04-06T07:21:57;6.90;99.90
20998;DHT22;10657;51.276;6.390;2023-04-06T07:24:24;7.00;99.90
20998;DHT22;10657;51.276;6.390;2023-04-06T07:26:50;7.20;99.90
20998;DHT22;10657;51.276;6.390;2023-04-06T07:29:17;7.50;99.90
20998;DHT22;10657;51.276;6.390;2023-04-06T07:31:44;7.40;99.90
20998;DHT22;10657;51.276;6.390;2023-04-06T07:34:11;7.20;99.90
20998;DHT22;10657;51.276;6.390;2023-04-06T07:36:38;7.20;99.90
20998;DHT22;10657;51.276;6.390;2023-04-06T07:39:04;7.20;99.90
20998;DHT22;10657;51.276;6.390;2023-04-06T07:41:31;7.20;99.90
20998;DHT22;10657;51.276;6.390;2023-04-06T07:43:58;7.30;99.90
20998;DHT22;10657;51.276;6.390;2023-04-06T07:46:24;7.50;99.90
20998;DHT22;10657;51.276;6.390;2023-04-06T07:48:51;7.60;99.90
20998;DHT22;10657;51.276;6.390;2023-04-06T07:51:18;7.60;99.90
20998;DHT22;10657;51.276;6.390;2023-04-06T07:53:45;7.50;99.90
20998;DHT22;10657;51.276;6.390;2023-04-06T07:56:11;7.40;99.90
20998;DHT22;10657;51.276;6.390;2023-04-06T07:58:38;7.70;99.90
20998;DHT22;10657;51.276;6.390;2023-04-06T08:01:05;7.50;99.90
20998;DHT22;10657;51.276;6.390;2023-04-06T08:03:34;7.80;99.90
20998;DHT22;10657;51.276;6.390;2023-04-06T08:06:01;8.20;99.90
20998;DHT22;10657;51.276;6.390;2023-04-06T08:08:29;8.20;99.90
20998;DHT22;10657;51.276;6.390;2023-04-06T08:10:55;8.20;99.90
20998;DHT22;10657;51.276;6.390;2023-04-06T08:13:22;8.30;99.90
20998;DHT22;10657;51.276;6.390;2023-04-06T08:15:49;8.30;99.90
20998;DHT22;10657;51.276;6.390;2023-04-06T08:18:16;8.50;99.90
20998;DHT22;10657;51.276;6.390;2023-04-06T08:20:42;8.30;99.90
20998;DHT22;10657;51.276;6.390;2023-04-06T08:23:09;8.40;99.90
20998;DHT22;10657;51.276;6.390;2023-04-06T08:25:37;8.50;99.90
20998;DHT22;10657;51.276;6.390;2023-04-06T08:28:04;8.50;99.90
20998;DHT22;10657;51.276;6.390;2023-04-06T08:30:31;8.60;99.90
20998;DHT22;10657;51.276;6.390;2023-04-06T08:32:58;8.70;99.90
20998;DHT22;10657;51.276;6.390;2023-04-06T08:35:26;8.90;99.90
20998;DHT22;10657;51.276;6.390;2023-04-06T08:37:52;9.00;99.90
20998;DHT22;10657;51.276;6.390;2023-04-06T08:40:19;9.20;99.90
20998;DHT22;10657;51.276;6.390;2023-04-06T08:42:51;8.90;99.90
20998;DHT22;10657;51.276;6.390;2023-04-06T08:45:18;9.10;99.90
20998;DHT22;10657;51.276;6.390;2023-04-06T08:47:51;9.00;99.90
20998;DHT22;10657;51.276;6.390;2023-04-06T08:50:22;8.80;99.90
20998;DHT22;10657;51.276;6.390;2023-04-06T08:52:50;9.00;99.90
20998;DHT22;10657;51.276;6.390;2023-04-06T08:55:17;9.00;99.90
20998;DHT22;10657;51.276;6.390;2023-04-06T08:57:44;9.20;99.90
20998;DHT22;10657;51.276;6.390;2023-04-06T09:00:12;9.20;99.90
20998;DHT22;10657;51.276;6.390;2023-04-06T09:02:40;9.20;99.90
20998;DHT22;10657;51.276;6.390;2023-04-06T09:05:09;9.20;99.90
20998;DHT22;10657;51.276;6.390;2023-04-06T09:07:37;9.50;99.90
20998;DHT22;10657;51.276;6.390;2023-04-06T09:10:05;9.60;99.90
20998;DHT22;10657;51.276;6.390;2023-04-06T09:12:32;9.60;99.90
20998;DHT22;10657;51.276;6.390;2023-04-06T09:15:00;9.70;99.90
20998;DHT22;10657;51.276;6.390;2023-04-06T09:17:29;9.80;99.90
20998;DHT22;10657;51.276;6.390;2023-04-06T09:19:56;9.80;99.90
20998;DHT22;10657;51.276;6.390;2023-04-06T09:22:23;9.80;99.90
20998;DHT22;10657;51.276;6.390;2023-04-06T09:24:54;9.90;99.90
20998;DHT22;10657;51.276;6.390;2023-04-06T09:27:35;10.10;99.90
20998;DHT22;10657;51.276;6.390;2023-04-06T09:32:51;10.20;99.90
20998;DHT22;10657;51.276;6.390;2023-04-06T09:35:19;10.20;99.90
20998;DHT22;10657;51.276;6.390;2023-04-06T09:37:48;10.30;99.90
20998;DHT22;10657;51.276;6.390;2023-04-06T09:40:15;10.30;99.90
20998;DHT22;10657;51.276;6.390;2023-04-06T09:42:48;10.50;99.90
20998;DHT22;10657;51.276;6.390;2023-04-06T09:45:15;10.60;99.90
20998;DHT22;10657;51.276;6.390;2023-04-06T09:47:43;10.60;99.90
20998;DHT22;10657;51.276;6.390;2023-04-06T09:50:14;10.60;99.90
20998;DHT22;10657;51.276;6.390;2023-04-06T09:52:48;10.70;99.90
20998;DHT22;10657;51.276;6.390;2023-04-06T09:55:34;10.70;99.90
20998;DHT22;10657;51.276;6.390;2023-04-06T09:58:06;10.70;99.90
20998;DHT22;10657;51.276;6.390;2023-04-06T10:00:42;10.80;99.90
20998;DHT22;10657;51.276;6.390;2023-04-06T10:05:52;10.80;99.90
20998;DHT22;10657;51.276;6.390;2023-04-06T10:08:24;10.80;99.90
20998;DHT22;10657;51.276;6.390;2023-04-06T10:10:58;10.80;99.90
20998;DHT22;10657;51.276;6.390;2023-04-06T10:13:25;10.80;99.90
20998;DHT22;10657;51.276;6.390;2023-04-06T10:15:52;10.70;99.90
20998;DHT22;10657;51.276;6.390;2023-04-06T10:18:19;10.90;99.90
20998;DHT22;10657;51.276;6.390;2023-04-06T10:25:56;10.70;99.90
20998;DHT22;10657;51.276;6.390;2023-04-06T10:28:24;10.80;99.90
20998;DHT22;10657;51.276;6.390;2023-04-06T10:30:58;10.90;99.90
20998;DHT22;10657;51.276;6.390;2023-04-06T10:33:25;10.90;99.90
20998;DHT22;10657;51.276;6.390;2023-04-06T10:35:52;10.80;99.90
20998;DHT22;10657;51.276;6.390;2023-04-06T10:38:19;10.90;99.90
20998;DHT22;10657;51.276;6.390;2023-04-06T10:40:50;11.10;99.90
20998;DHT22;10657;51.276;6.390;2023-04-06T10:43:21;11.00;99.90
20998;DHT22;10657;51.276;6.390;2023-04-06T10:46:00;11.20;99.90
20998;DHT22;10657;51.276;6.390;2023-04-06T10:48:40;11.20;99.90
20998;DHT22;10657;51.276;6.390;2023-04-06T10:51:12;11.20;99.90
20998;DHT22;10657;51.276;6.390;2023-04-06T10:53:42;11.20;99.90
20998;DHT22;10657;51.276;6.390;2023-04-06T10:56:11;11.30;99.90
20998;DHT22;10657;51.276;6.390;2023-04-06T10:58:44;11.30;99.90
20998;DHT22;10657;51.276;6.390;2023-04-06T11:01:19;11.40;99.90
20998;DHT22;10657;51.276;6.390;2023-04-06T11:03:48;11.40;99.90
20998;DHT22;10657;51.276;6.390;2023-04-06T11:06:23;11.40;99.90
20998;DHT22;10657;51.276;6.390;2023-04-06T11:08:51;11.40;99.90
20998;DHT22;10657;51.276;6.390;2023-04-06T11:11:20;11.40;99.90
20998;DHT22;10657;51.276;6.390;2023-04-06T11:13:54;11.40;99.90
20998;DHT22;10657;51.276;6.390;2023-04-06T11:16:23;11.60;99.90
20998;DHT22;10657;51.276;6.390;2023-04-06T11:21:18;11.50;99.90
20998;DHT22;10657;51.276;6.390;2023-04-06T11:23:45;11.50;99.90
20998;DHT22;10657;51.276;6.390;2023-04-06T11:26:13;11.70;99.90
20998;DHT22;10657;51.276;6.390;2023-04-06T11:28:41;11.80;99.90
20998;DHT22;10657;51.276;6.390;2023-04-06T11:31:10;11.70;99.90
20998;DHT22;10657;51.276;6.390;2023-04-06T11:33:38;11.80;99.90
20998;DHT22;10657;51.276;6.390;2023-04-06T11:36:05;11.70;99.90
20998;DHT22;10657;51.276;6.390;2023-04-06T11:38:32;11.80;99.90
20998;DHT22;10657;51.276;6.390;2023-04-06T11:41:01;11.80;99.90
20998;DHT22;10657;51.276;6.390;2023-04-06T11:43:31;11.80;99.90
20998;DHT22;10657;51.276;6.390;2023-04-06T11:46:02;11.90;99.90
20998;DHT22;10657;51.276;6.390;2023-04-06T11:48:30;11.70;99.90
20998;DHT22;10657;51.276;6.390;2023-04-06T11:50:58;11.80;99.90
20998;DHT22;10657;51.276;6.390;2023-04-06T11:53:28;11.60;99.90
20998;DHT22;10657;51.276;6.390;2023-04-06T11:55:56;11.70;99.90
20998;DHT22;10657;51.276;6.390;2023-04-06T11:58:23;11.60;99.90
20998;DHT22;10657;51.276;6.390;2023-04-06T12:00:49;11.60;99.90
20998;DHT22;10657;51.276;6.390;2023-04-06T12:03:16;11.30;99.90
20998;DHT22;10657;51.276;6.390;2023-04-06T12:05:43;11.40;99.90
20998;DHT22;10657;51.276;6.390;2023-04-06T12:08:10;11.40;99.90
20998;DHT22;10657;51.276;6.390;2023-04-06T12:10:36;11.50;99.90
20998;DHT22;10657;51.276;6.390;2023-04-06T12:13:04;11.30;99.90
20998;DHT22;10657;51.276;6.390;2023-04-06T12:15:31;11.30;99.90
20998;DHT22;10657;51.276;6.390;2023-04-06T12:17:57;11.20;99.90
20998;DHT22;10657;51.276;6.390;2023-04-06T12:20:24;11.10;99.90
20998;DHT22;10657;51.276;6.390;2023-04-06T12:22:53;11.10;99.90
20998;DHT22;10657;51.276;6.390;2023-04-06T12:25:20;11.10;99.90
20998;DHT22;10657;51.276;6.390;2023-04-06T12:27:47;11.20;99.90
20998;DHT22;10657;51.276;6.390;2023-04-06T12:30:14;11.30;99.90
20998;DHT22;10657;51.276;6.390;2023-04-06T12:32:41;11.30;99.90
20998;DHT22;10657;51.276;6.390;2023-04-06T12:35:08;11.00;99.90
20998;DHT22;10657;51.276;6.390;2023-04-06T12:37:35;11.00;99.90
20998;DHT22;10657;51.276;6.390;2023-04-06T12:40:03;11.00;99.90
20998;DHT22;10657;51.276;6.390;2023-04-06T12:42:30;10.80;99.90
20998;DHT22;10657;51.276;6.390;2023-04-06T12:44:57;10.70;99.90
20998;DHT22;10657;51.276;6.390;2023-04-06T12:47:25;10.70;99.90
20998;DHT22;10657;51.276;6.390;2023-04-06T12:49:53;10.70;99.90
20998;DHT22;10657;51.276;6.390;2023-04-06T12:52:20;10.70;99.90
20998;DHT22;10657;51.276;6.390;2023-04-06T12:54:47;10.70;99.90
20998;DHT22;10657;51.276;6.390;2023-04-06T12:57:16;10.70;99.90
20998;DHT22;10657;51.276;6.390;2023-04-06T12:59:43;10.60;99.90
20998;DHT22;10657;51.276;6.390;2023-04-06T13:02:11;10.50;99.90
20998;DHT22;10657;51.276;6.390;2023-04-06T13:04:38;10.50;99.90
20998;DHT22;10657;51.276;6.390;2023-04-06T13:07:05;10.40;99.90
20998;DHT22;10657;51.276;6.390;2023-04-06T13:09:31;10.40;99.90
20998;DHT22;10657;51.276;6.390;2023-04-06T13:11:58;10.50;99.90
20998;DHT22;10657;51.276;6.390;2023-04-06T13:14:25;10.40;99.90
20998;DHT22;10657;51.276;6.390;2023-04-06T13:16:51;10.40;99.90
20998;DHT22;10657;51.276;6.390;2023-04-06T13:19:18;10.50;99.90
20998;DHT22;10657;51.276;6.390;2023-04-06T13:21:45;10.60;99.90
20998;DHT22;10657;51.276;6.390;2023-04-06T13:24:12;10.60;99.90
20998;DHT22;10657;51.276;6.390;2023-04-06T13:26:41;10.50;99.90
20998;DHT22;10657;51.276;6.390;2023-04-06T13:29:08;10.40;99.90
20998;DHT22;10657;51.276;6.390;2023-04-06T13:31:35;10.50;99.90
20998;DHT22;10657;51.276;6.390;2023-04-06T13:34:02;10.60;99.90
20998;DHT22;10657;51.276;6.390;2023-04-06T13:36:28;10.60;99.90
20998;DHT22;10657;51.276;6.390;2023-04-06T13:38:56;10.50;99.90
20998;DHT22;10657;51.276;6.390;2023-04-06T13:41:24;10.60;99.90
20998;DHT22;10657;51.276;6.390;2023-04-06T13:43:55;10.50;99.90
20998;DHT22;10657;51.276;6.390;2023-04-06T13:46:24;10.60;99.90
20998;DHT22;10657;51.276;6.390;2023-04-06T13:48:51;10.50;99.90
20998;DHT22;10657;51.276;6.390;2023-04-06T13:51:18;10.60;99.90
20998;DHT22;10657;51.276;6.390;2023-04-06T13:53:44;10.60;99.90
20998;DHT22;10657;51.276;6.390;2023-04-06T13:56:11;10.50;99.90
20998;DHT22;10657;51.276;6.390;2023-04-06T13:58:38;10.50;99.90
20998;DHT22;10657;51.276;6.390;2023-04-06T14:01:06;10.30;99.90
20998;DHT22;10657;51.276;6.390;2023-04-06T14:03:34;10.40;99.90
20998;DHT22;10657;51.276;6.390;2023-04-06T14:06:09;10.50;99.90
20998;DHT22;10657;51.276;6.390;2023-04-06T14:08:41;10.40;99.90
20998;DHT22;10657;51.276;6.390;2023-04-06T14:11:14;10.00;99.90
20998;DHT22;10657;51.276;6.390;2023-04-06T14:13:41;10.10;99.90
20998;DHT22;10657;51.276;6.390;2023-04-06T14:16:08;10.10;99.90
20998;DHT22;10657;51.276;6.390;2023-04-06T14:18:36;10.10;99.90
20998;DHT22;10657;51.276;6.390;2023-04-06T14:21:03;10.20;99.90
20998;DHT22;10657;51.276;6.390;2023-04-06T14:23:31;10.30;99.90
20998;DHT22;10657;51.276;6.390;2023-04-06T14:26:06;10.30;99.90
20998;DHT22;10657;51.276;6.390;2023-04-06T14:28:33;10.30;99.90
20998;DHT22;10657;51.276;6.390;2023-04-06T14:31:02;10.30;99.90
20998;DHT22;10657;51.276;6.390;2023-04-06T14:33:31;10.30;99.90
20998;DHT22;10657;51.276;6.390;2023-04-06T14:35:58;10.30;99.90
20998;DHT22;10657;51.276;6.390;2023-04-06T14:38:24;10.30;99.90
20998;DHT22;10657;51.276;6.390;2023-04-06T14:40:51;10.30;99.90
20998;DHT22;10657;51.276;6.390;2023-04-06T14:43:18;10.40;99.90
20998;DHT22;10657;51.276;6.390;2023-04-06T14:45:45;10.30;99.90
20998;DHT22;10657;51.276;6.390;2023-04-06T14:48:11;10.30;99.90
20998;DHT22;10657;51.276;6.390;2023-04-06T14:50:41;10.30;99.90
20998;DHT22;10657;51.276;6.390;2023-04-06T14:53:12;10.20;99.90
20998;DHT22;10657;51.276;6.390;2023-04-06T14:55:39;10.20;99.90
20998;DHT22;10657;51.276;6.390;2023-04-06T14:58:10;10.20;99.90
20998;DHT22;10657;51.276;6.390;2023-04-06T15:00:38;10.20;99.90
20998;DHT22;10657;51.276;6.390;2023-04-06T15:03:04;10.20;99.90
20998;DHT22;10657;51.276;6.390;2023-04-06T15:05:34;10.30;99.90
20998;DHT22;10657;51.276;6.390;2023-04-06T15:08:00;10.30;99.90
20998;DHT22;10657;51.276;6.390;2023-04-06T15:10:27;10.20;99.90
20998;DHT22;10657;51.276;6.390;2023-04-06T15:12:54;10.20;99.90
20998;DHT22;10657;51.276;6.390;2023-04-06T15:15:20;10.30;99.90
20998;DHT22;10657;51.276;6.390;2023-04-06T15:17:47;10.30;99.90
20998;DHT22;10657;51.276;6.390;2023-04-06T15:20:14;10.20;99.90
20998;DHT22;10657;51.276;6.390;2023-04-06T15:22:40;10.20;99.90
20998;DHT22;10657;51.276;6.390;2023-04-06T15:25:07;10.20;99.90
20998;DHT22;10657;51.276;6.390;2023-04-06T15:27:34;10.20;99.90
20998;DHT22;10657;51.276;6.390;2023-04-06T15:30:01;10.30;99.90
20998;DHT22;10657;51.276;6.390;2023-04-06T15:32:27;10.10;99.90
20998;DHT22;10657;51.276;6.390;2023-04-06T15:34:57;10.10;99.90
20998;DHT22;10657;51.276;6.390;2023-04-06T15:37:24;10.10;99.90
20998;DHT22;10657;51.276;6.390;2023-04-06T15:39:50;10.10;99.90
20998;DHT22;10657;51.276;6.390;2023-04-06T15:42:17;10.00;99.90
20998;DHT22;10657;51.276;6.390;2023-04-06T15:44:43;10.00;99.90
20998;DHT22;10657;51.276;6.390;2023-04-06T15:47:10;10.00;99.90
20998;DHT22;10657;51.276;6.390;2023-04-06T15:49:37;9.90;99.90
20998;DHT22;10657;51.276;6.390;2023-04-06T15:52:03;10.10;99.90
20998;DHT22;10657;51.276;6.390;2023-04-06T15:54:30;10.00;99.90